createdAt,value
2023-05-09T00:00:56.155Z,41.24
2023-05-09T00:01:56.229Z,41.30
2023-05-09T00:02:56.248Z,41.21
2023-05-09T00:03:56.263Z,41.25
2023-05-09T00:04:56.269Z,41.24
2023-05-09T00:05:56.296Z,41.24
2023-05-09T00:06:56.328Z,41.30
2023-05-09T00:07:56.365Z,41.28
2023-05-09T00:08:56.399Z,41.30
2023-05-09T00:09:56.451Z,41.30
2023-05-09T00:10:56.613Z,41.24
2023-05-09T00:11:56.541Z,41.24
2023-05-09T00:12:56.617Z,41.26
2023-05-09T00:13:56.605Z,41.26
2023-05-09T00:14:56.643Z,41.18
2023-05-09T00:15:56.716Z,41.22
2023-05-09T00:16:56.735Z,41.27
2023-05-09T00:17:56.826Z,41.24
2023-05-09T00:18:56.821Z,41.22
2023-05-09T00:19:56.863Z,41.26
2023-05-09T00:20:56.905Z,41.25
2023-05-09T00:21:56.951Z,41.29
2023-05-09T00:22:56.987Z,41.27
2023-05-09T00:23:57.022Z,41.24
2023-05-09T00:24:57.065Z,41.23
2023-05-09T00:25:57.116Z,41.27
2023-05-09T00:26:57.289Z,41.22
2023-05-09T00:27:57.212Z,41.22
2023-05-09T00:28:57.244Z,41.21
2023-05-09T00:29:57.299Z,41.22
2023-05-09T00:30:57.339Z,41.22
2023-05-09T00:31:57.429Z,41.18
2023-05-09T00:32:57.465Z,41.23
2023-05-09T00:33:57.488Z,41.26
2023-05-09T00:34:57.564Z,41.17
2023-05-09T00:35:57.616Z,41.18
2023-05-09T00:36:57.637Z,41.21
2023-05-09T00:37:57.686Z,41.19
2023-05-09T00:38:57.750Z,41.21
2023-05-09T00:39:57.817Z,41.23
2023-05-09T00:40:57.837Z,41.18
2023-05-09T00:41:57.881Z,41.21
2023-05-09T00:42:58.037Z,41.19
2023-05-09T00:43:57.963Z,41.17
2023-05-09T00:44:58.015Z,41.19
2023-05-09T00:45:58.095Z,41.11
2023-05-09T00:46:58.118Z,41.18
2023-05-09T00:47:58.222Z,41.20
2023-05-09T00:48:58.215Z,41.22
2023-05-09T00:49:58.350Z,41.17
2023-05-09T00:50:58.299Z,41.19
2023-05-09T00:51:58.348Z,41.18
2023-05-09T00:52:58.408Z,41.17
2023-05-09T00:53:58.440Z,41.11
2023-05-09T00:54:58.481Z,41.17
2023-05-09T00:55:58.535Z,41.15
2023-05-09T00:56:58.584Z,41.15
2023-05-09T00:57:58.640Z,41.11
2023-05-09T00:58:58.812Z,41.18
2023-05-09T00:59:58.742Z,41.15
2023-05-09T01:00:58.801Z,41.13
2023-05-09T01:01:58.822Z,41.14
2023-05-09T01:02:58.928Z,41.13
2023-05-09T01:03:58.915Z,41.14
2023-05-09T01:04:58.970Z,41.14
2023-05-09T01:05:59.014Z,41.10
2023-05-09T01:06:59.053Z,41.06
2023-05-09T01:07:59.101Z,41.11
2023-05-09T01:08:59.155Z,41.10
2023-05-09T01:09:59.195Z,41.11
2023-05-09T01:10:59.253Z,41.11
2023-05-09T01:11:59.314Z,41.10
2023-05-09T01:12:59.397Z,41.11
2023-05-09T01:13:59.400Z,41.10
2023-05-09T01:14:59.572Z,41.09
2023-05-09T01:15:59.539Z,41.09
2023-05-09T01:16:59.562Z,41.12
2023-05-09T01:17:59.660Z,41.09
2023-05-09T01:18:59.656Z,41.07
2023-05-09T01:19:59.707Z,41.09
2023-05-09T01:20:59.744Z,41.04
2023-05-09T01:21:59.775Z,41.09
2023-05-09T01:22:59.827Z,41.04
2023-05-09T01:23:59.872Z,41.06
2023-05-09T01:24:59.921Z,41.07
2023-05-09T01:25:59.962Z,41.04
2023-05-09T01:27:00.023Z,41.10
2023-05-09T01:28:00.102Z,41.06
2023-05-09T01:29:00.128Z,40.99
2023-05-09T01:30:00.210Z,41.05
2023-05-09T01:31:00.346Z,41.05
2023-05-09T01:32:00.253Z,41.05
2023-05-09T01:33:00.354Z,41.04
2023-05-09T01:34:00.349Z,40.99
2023-05-09T01:35:00.393Z,41.00
2023-05-09T01:36:00.446Z,41.04
2023-05-09T01:37:00.494Z,41.04
2023-05-09T01:38:00.557Z,40.96
2023-05-09T01:39:00.600Z,41.02
2023-05-09T01:40:00.648Z,41.02
2023-05-09T01:41:00.702Z,41.04
2023-05-09T01:42:00.771Z,40.99
2023-05-09T01:43:00.802Z,41.02
2023-05-09T01:44:01.032Z,40.96
2023-05-09T01:45:00.898Z,40.98
2023-05-09T01:46:00.942Z,41.01
2023-05-09T01:47:01.300Z,41.02
2023-05-09T01:48:01.072Z,40.97
2023-05-09T01:49:01.101Z,40.98
2023-05-09T01:50:01.152Z,40.97
2023-05-09T01:51:01.204Z,40.98
2023-05-09T01:52:01.253Z,40.99
2023-05-09T01:53:01.307Z,40.96
2023-05-09T01:54:01.358Z,40.94
2023-05-09T01:55:01.414Z,40.94
2023-05-09T01:56:01.462Z,40.97
2023-05-09T01:57:01.496Z,40.99
2023-05-09T01:58:01.545Z,40.93
2023-05-09T01:59:01.588Z,40.98
2023-05-09T02:00:01.642Z,40.98
2023-05-09T02:01:01.713Z,41.01
2023-05-09T02:02:01.776Z,40.97
2023-05-09T02:03:01.928Z,40.92
2023-05-09T02:04:01.811Z,40.95
2023-05-09T02:05:01.863Z,40.93
2023-05-09T02:06:01.915Z,40.93
2023-05-09T02:07:01.971Z,40.95
2023-05-09T02:08:02.024Z,40.94
2023-05-09T02:09:02.052Z,40.93
2023-05-09T02:10:02.102Z,40.97
2023-05-09T02:11:02.159Z,40.94
2023-05-09T02:12:02.197Z,40.94
2023-05-09T02:13:02.273Z,40.97
2023-05-09T02:14:02.284Z,40.90
2023-05-09T02:15:02.328Z,40.92
2023-05-09T02:16:02.389Z,40.94
2023-05-09T02:17:02.507Z,40.90
2023-05-09T02:18:02.498Z,40.89
2023-05-09T02:19:02.650Z,40.92
2023-05-09T02:20:02.577Z,40.90
2023-05-09T02:21:02.621Z,40.89
2023-05-09T02:22:02.665Z,40.87
2023-05-09T02:23:02.714Z,40.90
2023-05-09T02:24:02.770Z,40.86
2023-05-09T02:25:02.812Z,40.89
2023-05-09T02:26:02.863Z,40.93
2023-05-09T02:27:02.938Z,40.87
2023-05-09T02:28:02.969Z,40.87
2023-05-09T02:29:03.024Z,40.85
2023-05-09T02:30:03.074Z,40.90
2023-05-09T02:31:03.127Z,40.85
2023-05-09T02:32:03.209Z,40.84
2023-05-09T02:33:03.241Z,40.86
2023-05-09T02:34:03.272Z,40.81
2023-05-09T02:35:03.462Z,40.81
2023-05-09T02:36:03.377Z,40.83
2023-05-09T02:37:03.429Z,40.85
2023-05-09T02:38:03.473Z,40.84
2023-05-09T02:39:03.538Z,40.87
2023-05-09T02:40:03.584Z,40.83
2023-05-09T02:41:03.638Z,40.81
2023-05-09T02:42:03.695Z,40.85
2023-05-09T02:43:03.739Z,40.84
2023-05-09T02:44:03.817Z,40.84
2023-05-09T02:45:03.846Z,40.85
2023-05-09T02:46:03.929Z,40.80
2023-05-09T02:47:03.934Z,40.89
2023-05-09T02:48:06.275Z,40.81
2023-05-09T02:49:03.988Z,40.80
2023-05-09T02:50:03.999Z,40.82
2023-05-09T02:51:04.122Z,40.81
2023-05-09T02:52:04.015Z,40.84
2023-05-09T02:53:04.844Z,40.81
2023-05-09T02:54:04.052Z,40.82
2023-05-09T02:55:04.110Z,40.80
2023-05-09T02:56:04.055Z,40.79
2023-05-09T02:57:04.088Z,40.79
2023-05-09T02:58:13.261Z,40.82
2023-05-09T02:59:04.081Z,40.81
2023-05-09T03:00:04.086Z,40.79
2023-05-09T03:01:04.138Z,40.81
2023-05-09T03:02:04.108Z,40.76
2023-05-09T03:03:04.180Z,40.79
2023-05-09T03:04:04.151Z,40.80
2023-05-09T03:05:04.146Z,40.80
2023-05-09T03:06:04.158Z,40.81
2023-05-09T03:07:04.289Z,40.76
2023-05-09T03:08:04.182Z,40.80
2023-05-09T03:09:04.201Z,40.79
2023-05-09T03:10:04.258Z,40.73
2023-05-09T03:11:04.226Z,40.77
2023-05-09T03:12:04.247Z,40.76
2023-05-09T03:13:04.326Z,40.76
2023-05-09T03:14:04.262Z,40.76
2023-05-09T03:15:04.283Z,40.76
2023-05-09T03:16:04.329Z,40.78
2023-05-09T03:17:04.318Z,40.76
2023-05-09T03:18:04.410Z,40.77
2023-05-09T03:19:04.360Z,40.79
2023-05-09T03:20:04.623Z,40.73
2023-05-09T03:21:04.339Z,40.72
2023-05-09T03:22:04.344Z,40.74
2023-05-09T03:23:04.482Z,40.72
2023-05-09T03:24:04.388Z,40.77
2023-05-09T03:25:04.494Z,40.72
2023-05-09T03:26:04.400Z,40.77
2023-05-09T03:27:04.421Z,40.77
2023-05-09T03:28:04.406Z,40.74
2023-05-09T03:29:04.422Z,40.76
2023-05-09T03:30:04.440Z,40.72
2023-05-09T03:31:04.460Z,40.72
2023-05-09T03:32:04.464Z,40.79
2023-05-09T03:33:04.525Z,40.74
2023-05-09T03:34:04.483Z,40.72
2023-05-09T03:35:04.504Z,40.72
2023-05-09T03:36:04.535Z,40.73
2023-05-09T03:37:04.568Z,40.73
2023-05-09T03:38:04.609Z,40.74
2023-05-09T03:39:04.789Z,40.73
2023-05-09T03:40:04.761Z,40.69
2023-05-09T03:41:04.780Z,40.76
2023-05-09T03:42:04.843Z,40.67
2023-05-09T03:43:04.887Z,40.69
2023-05-09T03:44:04.952Z,40.71
2023-05-09T03:45:05.054Z,40.76
2023-05-09T03:46:05.048Z,40.67
2023-05-09T03:47:05.156Z,40.66
2023-05-09T03:48:05.173Z,40.69
2023-05-09T03:49:05.220Z,40.68
2023-05-09T03:50:05.276Z,40.69
2023-05-09T03:51:05.327Z,40.73
2023-05-09T03:52:05.382Z,40.69
2023-05-09T03:53:05.430Z,40.67
2023-05-09T03:54:05.494Z,40.69
2023-05-09T03:55:05.664Z,40.68
2023-05-09T03:56:05.591Z,40.69
2023-05-09T03:57:05.660Z,40.67
2023-05-09T03:58:05.700Z,40.69
2023-05-09T03:59:05.752Z,40.66
2023-05-09T04:00:05.843Z,40.67
2023-05-09T04:01:05.900Z,40.64
2023-05-09T04:02:06.020Z,40.66
2023-05-09T04:03:06.043Z,40.66
2023-05-09T04:04:06.098Z,40.64
2023-05-09T04:05:06.091Z,40.62
2023-05-09T04:06:06.156Z,40.64
2023-05-09T04:07:06.218Z,40.63
2023-05-09T04:08:06.273Z,40.64
2023-05-09T04:09:06.380Z,40.69
2023-05-09T04:10:06.449Z,40.66
2023-05-09T04:11:06.607Z,40.59
2023-05-09T04:12:06.506Z,40.59
2023-05-09T04:13:06.607Z,40.63
2023-05-09T04:14:07.464Z,40.62
2023-05-09T04:15:06.674Z,40.64
2023-05-09T04:16:06.746Z,40.64
2023-05-09T04:17:06.863Z,40.57
2023-05-09T04:18:06.915Z,40.59
2023-05-09T04:19:06.914Z,40.58
2023-05-09T04:20:06.959Z,40.62
2023-05-09T04:21:07.017Z,40.63
2023-05-09T04:22:07.086Z,40.62
2023-05-09T04:23:07.158Z,40.61
2023-05-09T04:24:07.199Z,40.55
2023-05-09T04:25:07.249Z,40.59
2023-05-09T04:26:07.315Z,40.57
2023-05-09T04:27:07.506Z,40.59
2023-05-09T04:28:07.431Z,40.55
2023-05-09T04:29:07.499Z,40.61
2023-05-09T04:30:07.553Z,40.55
2023-05-09T04:31:07.734Z,40.58
2023-05-09T04:32:07.745Z,40.58
2023-05-09T04:33:07.837Z,40.55
2023-05-09T04:34:07.794Z,40.57
2023-05-09T04:35:07.855Z,40.57
2023-05-09T04:36:07.913Z,40.54
2023-05-09T04:37:07.997Z,40.54
2023-05-09T04:38:08.057Z,40.57
2023-05-09T04:39:08.109Z,40.52
2023-05-09T04:40:08.184Z,40.55
2023-05-09T04:41:08.270Z,40.55
2023-05-09T04:42:08.298Z,40.54
2023-05-09T04:43:08.491Z,40.55
2023-05-09T04:44:08.427Z,40.50
2023-05-09T04:45:08.488Z,40.55
2023-05-09T04:46:08.579Z,40.54
2023-05-09T04:47:08.616Z,40.55
2023-05-09T04:48:08.744Z,40.55
2023-05-09T04:49:08.737Z,40.53
2023-05-09T04:50:08.818Z,40.49
2023-05-09T04:51:08.868Z,40.46
2023-05-09T04:52:08.931Z,40.51
2023-05-09T04:53:08.982Z,40.51
2023-05-09T04:54:09.046Z,40.51
2023-05-09T04:55:09.106Z,40.50
2023-05-09T04:56:09.165Z,40.50
2023-05-09T04:57:17.380Z,40.49
2023-05-09T04:58:09.238Z,40.49
2023-05-09T04:59:09.361Z,40.46
2023-05-09T05:00:09.261Z,40.49
2023-05-09T05:01:09.278Z,40.45
2023-05-09T05:02:09.289Z,40.46
2023-05-09T05:03:09.428Z,40.49
2023-05-09T05:04:09.341Z,40.48
2023-05-09T05:05:12.429Z,40.46
2023-05-09T05:06:09.319Z,40.45
2023-05-09T05:07:09.325Z,40.44
2023-05-09T05:08:09.331Z,40.49
2023-05-09T05:09:09.344Z,40.40
2023-05-09T05:10:09.345Z,40.47
2023-05-09T05:11:09.346Z,40.41
2023-05-09T05:12:09.874Z,40.44
2023-05-09T05:13:09.458Z,40.45
2023-05-09T05:14:09.388Z,40.44
2023-05-09T05:15:09.525Z,40.40
2023-05-09T05:16:09.420Z,40.41
2023-05-09T05:17:09.406Z,40.46
2023-05-09T05:18:09.468Z,40.41
2023-05-09T05:19:09.432Z,40.40
2023-05-09T05:20:09.443Z,40.40
2023-05-09T05:21:09.449Z,40.40
2023-05-09T05:22:09.445Z,40.40
2023-05-09T05:23:09.919Z,40.35
2023-05-09T05:24:09.470Z,40.33
2023-05-09T05:25:09.480Z,40.36
2023-05-09T05:26:09.486Z,40.35
2023-05-09T05:27:09.492Z,40.35
2023-05-09T05:28:09.498Z,40.37
2023-05-09T05:29:09.511Z,40.34
2023-05-09T05:30:09.564Z,40.39
2023-05-09T05:31:09.778Z,40.36
2023-05-09T05:32:09.927Z,40.39
2023-05-09T05:33:09.817Z,40.32
2023-05-09T05:34:09.775Z,40.36
2023-05-09T05:35:09.834Z,40.38
2023-05-09T05:36:09.889Z,40.40
2023-05-09T05:37:09.934Z,40.37
2023-05-09T05:38:10.427Z,40.41
2023-05-09T05:39:10.038Z,40.41
2023-05-09T05:40:10.104Z,40.39
2023-05-09T05:41:10.153Z,40.44
2023-05-09T05:42:10.206Z,40.43
2023-05-09T05:43:10.605Z,40.42
2023-05-09T05:44:10.332Z,40.42
2023-05-09T05:45:10.374Z,40.43
2023-05-09T05:46:10.445Z,40.45
2023-05-09T05:47:10.505Z,40.58
2023-05-09T05:48:11.000Z,40.65
2023-05-09T05:49:10.552Z,40.65
2023-05-09T05:50:10.589Z,40.83
2023-05-09T05:51:10.634Z,40.91
2023-05-09T05:52:10.666Z,40.96
2023-05-09T12:41:31.062Z,37.08
2023-05-09T12:42:17.867Z,36.27
2023-05-09T12:43:17.854Z,36.45
2023-05-09T12:44:17.837Z,35.96
2023-05-09T12:45:18.094Z,35.51
2023-05-09T12:46:17.836Z,36.07
2023-05-09T12:47:17.927Z,36.11
2023-05-09T12:48:17.740Z,35.82
2023-05-09T12:49:17.725Z,34.69
2023-05-09T12:50:18.078Z,35.44
2023-05-09T12:51:17.689Z,35.59
2023-05-09T12:52:17.675Z,35.44
2023-05-09T12:53:17.713Z,34.51
2023-05-09T12:54:17.749Z,34.84
2023-05-09T12:55:18.087Z,34.78
2023-05-09T12:56:17.828Z,34.29
2023-05-09T12:57:18.069Z,35.00
2023-05-09T12:58:17.887Z,34.49
2023-05-09T12:59:17.924Z,34.55
2023-05-09T13:00:18.103Z,34.77
2023-05-09T13:01:18.003Z,34.98
2023-05-09T13:02:18.101Z,35.26
2023-05-09T13:03:18.127Z,35.29
2023-05-09T13:04:18.123Z,35.15
2023-05-09T13:05:18.168Z,34.86
2023-05-09T13:06:18.225Z,34.99
2023-05-09T13:07:18.255Z,34.91
2023-05-09T13:08:18.286Z,33.88
2023-05-09T13:09:18.338Z,34.29
2023-05-09T13:10:18.364Z,34.86
2023-05-09T13:11:18.390Z,35.37
2023-05-09T13:12:18.593Z,35.57
2023-05-09T13:13:21.928Z,35.11
2023-05-09T13:14:18.458Z,34.99
2023-05-09T13:15:18.901Z,35.30
2023-05-09T13:16:21.607Z,35.48
2023-05-09T13:17:18.337Z,35.55
2023-05-09T13:18:21.515Z,35.56
2023-05-09T13:19:18.285Z,35.48
2023-05-09T13:20:18.742Z,35.71
2023-05-09T13:21:17.598Z,35.90
2023-05-09T13:22:18.241Z,35.91
2023-05-09T13:23:18.216Z,35.74
2023-05-09T13:24:18.202Z,35.86
2023-05-09T13:25:18.196Z,35.83
2023-05-09T13:26:18.204Z,36.05
2023-05-09T13:27:18.157Z,36.43
2023-05-09T13:28:18.131Z,37.10
2023-05-09T13:29:18.209Z,36.98
2023-05-09T13:30:18.448Z,37.64
2023-05-09T13:31:18.149Z,37.57
2023-05-09T13:32:18.026Z,38.97
2023-05-09T13:33:25.892Z,39.49
2023-05-09T13:34:17.970Z,39.05
2023-05-09T13:35:17.952Z,38.67
2023-05-09T13:36:17.926Z,39.49
2023-05-09T13:37:17.897Z,40.44
2023-05-09T13:38:18.103Z,41.51
2023-05-09T13:39:17.894Z,42.52
2023-05-09T13:40:18.141Z,42.18
2023-05-09T13:41:18.108Z,41.90
2023-05-09T13:42:19.166Z,41.75
2023-05-09T13:43:17.847Z,41.58
2023-05-09T13:44:17.903Z,41.49
2023-05-09T13:45:18.236Z,41.55
2023-05-09T13:46:18.046Z,41.72
2023-05-09T13:47:18.064Z,42.02
2023-05-09T13:48:18.112Z,42.20
2023-05-09T13:49:18.088Z,42.29
2023-05-09T13:50:18.297Z,42.60
2023-05-09T13:51:18.181Z,42.90
2023-05-09T13:52:18.226Z,42.87
2023-05-09T13:53:18.268Z,42.78
2023-05-09T13:54:18.292Z,42.73
2023-05-09T13:55:18.350Z,42.79
2023-05-09T13:56:18.393Z,42.77
2023-05-09T13:57:18.416Z,42.64
2023-05-09T13:58:18.431Z,42.63
2023-05-09T13:59:18.460Z,42.75
2023-05-09T14:00:18.842Z,42.83
2023-05-09T14:01:18.742Z,42.72
2023-05-09T14:02:18.602Z,42.76
2023-05-09T14:03:18.673Z,42.79
2023-05-09T14:04:18.697Z,42.84
2023-05-09T14:05:18.949Z,42.77
2023-05-09T14:06:18.806Z,42.65
2023-05-09T14:07:18.852Z,42.62
2023-05-09T14:08:18.905Z,42.63
2023-05-09T14:09:18.938Z,42.59
2023-05-09T14:10:19.240Z,42.56
2023-05-09T14:11:19.133Z,42.49
2023-05-09T14:12:19.080Z,42.48
2023-05-09T14:13:19.179Z,42.49
2023-05-09T14:14:19.176Z,42.56
2023-05-09T14:15:19.232Z,42.53
2023-05-09T14:16:19.344Z,42.47
2023-05-09T14:17:19.424Z,42.47
2023-05-09T14:18:21.057Z,42.44
2023-05-09T14:19:19.321Z,42.48
2023-05-09T14:20:19.319Z,42.50
2023-05-09T14:21:19.282Z,42.47
2023-05-09T14:22:19.262Z,42.47
2023-05-09T14:23:19.244Z,42.42
2023-05-09T14:24:19.221Z,42.44
2023-05-09T14:25:19.205Z,42.47
2023-05-09T14:26:19.193Z,42.36
2023-05-09T14:27:19.190Z,42.37
2023-05-09T14:28:19.161Z,42.33
2023-05-09T14:29:19.176Z,42.33
2023-05-09T14:30:19.163Z,42.34
2023-05-09T14:31:19.141Z,42.27
2023-05-09T14:32:19.081Z,42.28
2023-05-09T14:33:19.188Z,42.29
2023-05-09T14:34:19.038Z,42.20
2023-05-09T14:35:19.071Z,42.25
2023-05-09T14:36:19.128Z,42.21
2023-05-09T14:37:18.990Z,42.15
2023-05-09T14:38:18.956Z,42.19
2023-05-09T14:39:19.117Z,42.15
2023-05-09T14:40:18.936Z,42.14
2023-05-09T14:41:21.366Z,42.11
2023-05-09T14:42:18.872Z,42.13
2023-05-09T14:43:18.847Z,42.08
2023-05-09T14:44:18.826Z,42.09
2023-05-09T14:45:18.785Z,42.05
2023-05-09T14:46:18.758Z,41.99
2023-05-09T14:47:18.735Z,41.98
2023-05-09T14:48:18.796Z,41.98
2023-05-09T14:49:18.816Z,41.95
2023-05-09T14:50:18.653Z,41.93
2023-05-09T14:51:18.640Z,41.89
2023-05-09T14:52:18.615Z,41.89
2023-05-09T14:53:18.598Z,41.87
2023-05-09T14:54:18.653Z,41.84
2023-05-09T14:55:18.569Z,41.82
2023-05-09T14:56:18.541Z,41.80
2023-05-09T14:57:18.534Z,41.75
2023-05-09T14:58:18.512Z,41.75
2023-05-09T14:59:18.512Z,41.75
2023-05-09T15:00:21.831Z,41.75
2023-05-09T15:01:18.695Z,41.74
2023-05-09T15:02:18.435Z,41.70
2023-05-09T15:03:18.403Z,41.69
2023-05-09T15:04:18.400Z,41.63
2023-05-09T15:05:18.499Z,41.69
2023-05-09T15:06:18.364Z,41.60
2023-05-09T15:07:18.327Z,41.62
2023-05-09T15:08:18.308Z,41.53
2023-05-09T15:09:18.295Z,41.49
2023-05-09T15:10:18.822Z,41.48
2023-05-09T15:11:18.239Z,41.41
2023-05-09T15:12:18.225Z,41.37
2023-05-09T15:13:18.300Z,41.39
2023-05-09T15:14:18.261Z,41.26
2023-05-09T15:15:18.284Z,41.27
2023-05-09T15:16:18.333Z,41.20
2023-05-09T15:17:18.329Z,41.16
2023-05-09T15:18:18.370Z,41.08
2023-05-09T15:19:18.370Z,41.06
2023-05-09T15:20:18.651Z,40.97
2023-05-09T15:21:18.549Z,40.87
2023-05-09T15:22:18.433Z,40.81
2023-05-09T15:23:18.524Z,40.66
2023-05-09T15:24:18.472Z,40.51
2023-05-09T15:25:18.489Z,40.32
2023-05-09T15:26:18.486Z,40.17
2023-05-09T15:27:18.490Z,39.99
2023-05-09T15:28:18.513Z,39.77
2023-05-09T15:29:18.529Z,39.56
2023-05-09T15:30:18.674Z,39.39
2023-05-09T15:31:18.573Z,39.29
2023-05-09T15:32:18.547Z,39.16
2023-05-09T15:33:18.542Z,39.02
2023-05-09T15:34:18.546Z,39.02
2023-05-09T15:35:18.566Z,39.06
2023-05-09T15:36:18.536Z,39.04
2023-05-09T15:37:18.621Z,39.06
2023-05-09T15:38:18.488Z,39.15
2023-05-09T15:39:18.501Z,39.22
2023-05-09T15:40:18.663Z,39.28
2023-05-09T15:41:18.512Z,39.36
2023-05-09T15:42:18.492Z,39.40
2023-05-09T15:43:18.474Z,39.43
2023-05-09T15:44:18.493Z,39.49
2023-05-09T15:45:18.456Z,39.56
2023-05-09T15:46:18.508Z,39.69
2023-05-09T15:47:18.457Z,39.71
2023-05-09T15:48:18.440Z,39.77
2023-05-09T15:49:18.444Z,39.79
2023-05-09T15:50:18.660Z,39.79
2023-05-09T15:51:18.450Z,39.81
2023-05-09T15:52:18.444Z,39.82
2023-05-09T15:53:18.572Z,39.78
2023-05-09T15:54:18.451Z,39.81
2023-05-09T15:55:18.524Z,39.75
2023-05-09T15:56:18.442Z,39.75
2023-05-09T15:57:18.441Z,39.70
2023-05-09T15:58:18.440Z,39.71
2023-05-09T15:59:18.434Z,39.72
2023-05-09T16:00:18.443Z,39.71
2023-05-09T16:01:18.495Z,39.65
2023-05-09T16:02:18.459Z,39.64
2023-05-09T16:03:18.692Z,39.61
2023-05-09T16:04:18.392Z,39.59
2023-05-09T16:05:18.384Z,39.49
2023-05-09T16:06:18.386Z,39.49
2023-05-09T16:07:18.538Z,39.41
2023-05-09T16:08:18.366Z,39.36
2023-05-09T16:09:18.453Z,39.27
2023-05-09T16:10:18.365Z,39.27
2023-05-09T16:11:18.280Z,39.06
2023-05-09T16:12:18.348Z,38.65
2023-05-09T16:13:18.358Z,37.83
2023-05-09T16:14:18.701Z,37.90
2023-05-09T16:15:18.370Z,37.82
2023-05-09T16:16:18.388Z,36.09
2023-05-09T16:17:18.335Z,36.04
2023-05-09T16:18:18.314Z,36.47
2023-05-09T16:19:18.311Z,36.74
2023-05-09T16:20:18.463Z,36.99
2023-05-09T16:21:18.339Z,37.24
2023-05-09T16:22:18.361Z,37.49
2023-05-09T16:23:18.395Z,37.75
2023-05-09T16:24:17.492Z,37.98
2023-05-09T16:25:18.569Z,38.16
2023-05-09T16:26:18.429Z,38.33
2023-05-09T16:27:18.404Z,38.52
2023-05-09T16:28:18.389Z,38.63
2023-05-09T16:29:18.371Z,38.78
2023-05-09T16:30:18.494Z,38.96
2023-05-09T16:31:18.391Z,39.07
2023-05-09T16:32:18.340Z,39.10
2023-05-09T16:33:18.331Z,39.20
2023-05-09T16:34:18.328Z,39.29
2023-05-09T16:35:18.329Z,39.35
2023-05-09T16:36:18.344Z,39.40
2023-05-09T16:37:18.333Z,39.54
2023-05-09T16:38:18.338Z,39.56
2023-05-09T16:39:18.340Z,39.58
2023-05-09T16:40:18.473Z,39.66
2023-05-09T16:41:18.470Z,39.76
2023-05-09T16:42:18.344Z,39.76
2023-05-09T16:43:18.335Z,39.81
2023-05-09T16:44:18.334Z,39.69
2023-05-09T16:45:18.334Z,39.45
2023-05-09T16:46:18.322Z,39.25
2023-05-09T16:47:18.326Z,39.05
2023-05-09T16:48:18.306Z,39.03
2023-05-09T16:49:18.275Z,39.03
2023-05-09T16:50:18.355Z,39.09
2023-05-09T16:51:18.236Z,39.17
2023-05-09T16:52:18.232Z,39.26
2023-05-09T16:53:18.213Z,39.37
2023-05-09T16:54:18.205Z,39.41
2023-05-09T16:55:18.198Z,39.53
2023-05-09T16:56:18.197Z,39.61
2023-05-09T16:57:18.237Z,39.71
2023-05-09T16:58:18.214Z,39.77
2023-05-09T16:59:18.229Z,39.83
2023-05-09T17:00:18.233Z,39.85
2023-05-09T17:01:18.332Z,39.97
2023-05-09T17:02:18.257Z,40.05
2023-05-09T17:03:18.283Z,40.11
2023-05-09T17:04:18.280Z,40.17
2023-05-09T17:05:18.312Z,40.25
2023-05-09T17:06:18.309Z,40.27
2023-05-09T17:07:18.321Z,40.35
2023-05-09T17:08:18.341Z,40.42
2023-05-09T17:09:18.360Z,40.40
2023-05-09T17:10:18.590Z,40.40
2023-05-09T17:11:18.721Z,40.49
2023-05-09T17:12:18.607Z,40.51
2023-05-09T17:13:18.581Z,40.63
2023-05-09T17:14:18.469Z,40.62
2023-05-09T17:15:18.483Z,40.65
2023-05-09T17:16:18.627Z,40.66
2023-05-09T17:17:18.528Z,40.71
2023-05-09T17:18:29.190Z,40.72
2023-05-09T17:19:18.546Z,40.82
2023-05-09T17:20:18.713Z,40.81
2023-05-09T17:21:18.508Z,40.79
2023-05-09T17:22:18.487Z,40.87
2023-05-09T17:23:18.473Z,40.93
2023-05-09T17:24:18.452Z,40.93
2023-05-09T17:25:18.434Z,40.98
2023-05-09T17:26:18.432Z,41.01
2023-05-09T17:27:18.417Z,41.00
2023-05-09T17:28:18.410Z,41.04
2023-05-09T17:29:18.528Z,41.04
2023-05-09T17:30:20.602Z,41.07
2023-05-09T17:31:18.410Z,41.12
2023-05-09T17:32:18.359Z,41.11
2023-05-09T17:33:18.344Z,41.13
2023-05-09T17:34:18.319Z,41.22
2023-05-09T17:35:18.297Z,41.23
2023-05-09T17:36:18.281Z,41.26
2023-05-09T17:37:18.265Z,41.29
2023-05-09T17:38:18.244Z,41.25
2023-05-09T17:39:18.225Z,41.29
2023-05-09T17:40:18.371Z,41.34
2023-05-09T17:41:18.198Z,41.36
2023-05-09T17:42:18.189Z,41.33
2023-05-09T17:43:18.173Z,41.39
2023-05-09T17:44:18.146Z,41.38
2023-05-09T17:45:18.309Z,41.37
2023-05-09T17:46:18.246Z,41.38
2023-05-09T17:47:18.248Z,41.39
2023-05-09T17:48:18.289Z,41.45
2023-05-09T17:49:18.385Z,41.50
2023-05-09T17:50:18.765Z,41.46
2023-05-09T17:51:18.416Z,41.46
2023-05-09T17:52:18.442Z,41.44
2023-05-09T17:53:18.496Z,41.49
2023-05-09T17:54:18.508Z,41.48
2023-05-09T17:55:18.551Z,41.52
2023-05-09T17:56:18.591Z,41.54
2023-05-09T17:57:18.630Z,41.58
2023-05-09T17:58:18.676Z,41.58
2023-05-09T17:59:18.712Z,41.62
2023-05-09T18:00:18.747Z,41.63
2023-05-09T18:01:19.055Z,41.58
2023-05-09T18:02:18.864Z,41.60
2023-05-09T18:03:18.926Z,41.64
2023-05-09T18:04:18.942Z,41.66
2023-05-09T18:05:19.016Z,41.66
2023-05-09T18:06:19.041Z,41.62
2023-05-09T18:07:19.094Z,41.69
2023-05-09T18:08:19.154Z,41.67
2023-05-09T18:09:19.201Z,41.66
2023-05-09T18:10:19.247Z,41.69
2023-05-09T18:11:19.302Z,41.69
2023-05-09T18:12:19.348Z,41.68
2023-05-09T18:13:19.453Z,41.65
2023-05-09T18:14:19.435Z,41.71
2023-05-09T18:15:19.489Z,41.72
2023-05-09T18:16:19.558Z,41.74
2023-05-09T18:17:19.601Z,41.74
2023-05-09T18:18:19.791Z,41.79
2023-05-09T18:19:19.665Z,41.74
2023-05-09T18:20:19.720Z,41.76
2023-05-09T18:21:19.760Z,41.78
2023-05-09T18:22:19.810Z,41.78
2023-05-09T18:23:19.858Z,41.78
2023-05-09T18:24:19.909Z,41.82
2023-05-09T18:25:19.957Z,41.81
2023-05-09T18:26:20.008Z,41.78
2023-05-09T18:27:20.063Z,41.75
2023-05-09T18:28:20.112Z,41.79
2023-05-09T18:29:20.186Z,41.79
2023-05-09T18:30:20.227Z,41.80
2023-05-09T18:31:20.381Z,41.83
2023-05-09T18:32:20.334Z,41.81
2023-05-09T18:33:20.396Z,41.81
2023-05-09T18:34:20.438Z,41.82
2023-05-09T18:35:20.497Z,41.80
2023-05-09T18:36:20.550Z,41.79
2023-05-09T18:37:20.587Z,41.84
2023-05-09T18:38:20.643Z,41.81
2023-05-09T18:39:20.703Z,41.81
2023-05-09T18:40:20.726Z,41.83
2023-05-09T18:41:20.778Z,41.81
2023-05-09T18:42:20.857Z,41.81
2023-05-09T18:43:20.893Z,41.80
2023-05-09T18:44:20.910Z,41.86
2023-05-09T18:45:20.962Z,41.87
2023-05-09T18:46:21.167Z,41.82
2023-05-09T18:47:21.088Z,41.83
2023-05-09T18:48:21.164Z,41.83
2023-05-09T18:49:21.343Z,41.82
2023-05-09T18:50:21.258Z,41.85
2023-05-09T18:51:21.283Z,41.84
2023-05-09T18:52:21.347Z,41.85
2023-05-09T18:53:21.365Z,41.87
2023-05-09T18:54:21.393Z,41.86
2023-05-09T18:55:21.441Z,41.87
2023-05-09T18:56:21.497Z,41.84
2023-05-09T18:57:21.559Z,41.88
2023-05-09T18:58:21.612Z,41.84
2023-05-09T18:59:21.623Z,41.86
2023-05-09T19:00:21.680Z,41.87
2023-05-09T19:01:21.777Z,41.85
2023-05-09T19:02:21.922Z,41.85
2023-05-09T19:03:21.837Z,41.85
2023-05-09T19:04:21.999Z,41.85
2023-05-09T19:05:22.080Z,41.85
2023-05-09T19:06:22.026Z,41.85
2023-05-09T19:07:22.076Z,41.85
2023-05-09T19:08:22.119Z,41.82
2023-05-09T19:09:22.188Z,41.87
2023-05-09T19:10:22.246Z,41.85
2023-05-09T19:11:22.267Z,41.87
2023-05-09T19:12:22.302Z,41.86
2023-05-09T19:13:22.351Z,41.87
2023-05-09T19:14:22.286Z,41.87
2023-05-09T19:15:22.348Z,41.87
2023-05-09T19:16:22.449Z,41.87
2023-05-09T19:17:22.438Z,41.87
2023-05-09T19:18:22.456Z,41.90
2023-05-09T19:19:22.449Z,41.94
2023-05-09T19:20:22.476Z,41.90
2023-05-09T19:21:22.620Z,41.90
2023-05-09T19:22:22.516Z,41.84
2023-05-09T19:23:22.541Z,41.88
2023-05-09T19:24:22.596Z,41.88
2023-05-09T19:25:22.651Z,41.87
2023-05-09T19:26:22.676Z,41.88
2023-05-09T19:27:22.745Z,41.89
2023-05-09T19:28:22.784Z,41.89
2023-05-09T19:29:22.778Z,41.91
2023-05-09T19:30:22.770Z,41.89
2023-05-09T19:31:22.803Z,41.86
2023-05-09T19:32:22.741Z,41.82
2023-05-09T19:33:22.741Z,41.88
2023-05-09T19:34:22.724Z,41.91
2023-05-09T19:35:22.710Z,41.88
2023-05-09T19:36:22.693Z,41.83
2023-05-09T19:37:22.714Z,41.84
2023-05-09T19:38:22.696Z,41.83
2023-05-09T19:39:22.719Z,41.85
2023-05-09T19:40:22.708Z,41.83
2023-05-09T19:41:22.697Z,41.83